CheckWX is a tool to help pilots better visualize weather data.  It is not intended as a substitute for an official pre-flight weather briefing.

16:02:23 UTC

FJDG METAR
Diego Garcia NSF Airport
Camp Justice, British Indian Ocean Territory
Current

7 mins ago

FJDG 231555Z 07003KT 9999 FEW020 FEW090 BKN220 28/25 A2989 RMK SLP119 T02830251
Observed
May-23 @ 15:55 UTC
Wind
  • 070° at 3 KTS
Visibility
10,000+ meters
Flight Rules
VFR
Cloud Levels
  • Few at 2,000' AGL
  • Few at 9,000' AGL
  • Broken at 22,000' AGL
Temperature
28°C / 82°F
Dewpoint
25°C / 77°F
Heat Index
32°C / 90°F
Humidity
84%
Altimeter
29.89" Hg
Pressure
1012.22 hPa
Previous

1 hour ago

FJDG 231455Z 07005KT 9999 FEW023 SCT100 BKN220 28/25 A2988 RMK SLP115 8/172 T02840254 52027
Observed
May-23 @ 14:55 UTC
Wind
  • 070° at 5 KTS
Visibility
10,000+ meters
Flight Rules
VFR
Cloud Levels
  • Few at 2,300' AGL
  • Scattered at 10,000' AGL
  • Broken at 22,000' AGL
Temperature
28°C / 82°F
Dewpoint
25°C / 77°F
Heat Index
32°C / 90°F
Humidity
84%
Altimeter
29.88" Hg
Pressure
1011.82 hPa
Previous

2 hours ago

FJDG 231355Z 04005KT 9999 FEW018 SCT090 BKN210 28/26 A2985 RMK SLP105 T02830255
Observed
May-23 @ 13:55 UTC
Wind
  • 040° at 5 KTS
Visibility
10,000+ meters
Flight Rules
VFR
Cloud Levels
  • Few at 1,800' AGL
  • Scattered at 9,000' AGL
  • Broken at 21,000' AGL
Temperature
28°C / 82°F
Dewpoint
26°C / 79°F
Heat Index
33°C / 91°F
Humidity
89%
Altimeter
29.85" Hg
Pressure
1010.82 hPa